Hlavní strana
METAR-TAF:

METAR-TAF

Letiště :

Kristiansand, Norsko

zeměpisná šířka: 58-12N, zeměpisná délka: 008-05E, výška: 1 m

Aktuální stav počasí

Zpráva byla vytvořena před 23 minutami, v 02:50 UTC
Severovýchodní vítr 11 kt
Teplota 4°C
Vlhkost vzduchu 100%
Tlak 1014 hPa
Viditelnost 10 km a více

METAR: ENCN 180250Z AUTO 04011KT 9999 OVC005/// 04/04 Q1014

Čas: 04:13 (03:13 UTC)

Předpověď počasí

Zpráva byla vytvořena před 1 hodinou a 13 minutami, v 02:00 UTC
Předpověď platná od 18 v 03 UTC do 18 v 12 UTC
Východoseverovýchodní vítr 10 kt
Viditelnost 10 km a více
Oblačno až skoro zataženo ve výšce 900 ft
déšť
Dočasný
od 18 v 03 UTC do 18 v 12 UTC
Viditelnost: 4000 m
Oblačno až skoro zataženo ve výšce 400 ft
slabý déšť, sníh

TAF: ENCN 180200Z 1803/1812 06010KT 9999 RA BKN009 TEMPO 1803/1812 4000 -RASN BKN004

Stav a předpovědi počasí z více než 4 000 letišť (zprávy METAR a TAF).

Červené a žluté tečky na mapě představují dostupné meteorologické stanice.

Když kurzor umístíte na tečku, zobrazí se název stanice.

Pak kliknutím zobrazíte stav a předpověď počasí.

Chcete-li změnit mapu, kliknutím na zelené tlačítko se znaménkem +mapu přiblížíte, kliknutím na zelené tlačítko se znaménkem – mapu oddálíte a kliknutím na zelené šipky přejdete na sousední mapy.


METAR-TAF: